Time;durP1;ratioP1;P1;durP2;ratioP2;P2;SDS_P1;SDS_P2;PMS_P1;PMS_P2;Temp;Humidity;BMP_temperature;BMP_pressure;BME280_temperature;BME280_humidity;BME280_pressure;Samples;Min_cycle;Max_cycle;Signal;HPM_P1;HPM_P2
2023/03/23 00:00:55;;;;;;;38.78;21.65;;;;;;;;;;5142743;27;20122;-64
2023/03/23 00:04:35;;;;;;;36.40;23.90;;;;;;;;;;5138823;27;20486;-63
2023/03/23 00:08:15;;;;;;;34.95;23.30;;;;;;;;;;5141131;27;20051;-67
2023/03/23 00:12:04;;;;;;;38.20;24.88;;;;;;;;;;5140316;27;20040;-62
2023/03/23 00:15:40;;;;;;;38.05;25.27;;;;;;;;;;5140714;27;20119;-65
2023/03/23 00:18:58;;;;;;;38.08;26.08;;;;;;;;;;5137373;27;20031;-65
2023/03/23 00:22:40;;;;;;;48.30;28.60;;;;;;;;;;5138661;27;20050;-61
2023/03/23 00:26:20;;;;;;;42.92;27.90;;;;;;;;;;5139812;27;20062;-64
2023/03/23 00:30:01;;;;;;;49.90;27.88;;;;;;;;;;5141255;27;20043;-63
2023/03/23 00:33:42;;;;;;;39.05;27.30;;;;;;;;;;5141915;27;20486;-65
2023/03/23 00:37:22;;;;;;;45.80;28.73;;;;;;;;;;5137077;27;20059;-63
2023/03/23 00:41:02;;;;;;;44.47;28.17;;;;;;;;;;5140064;27;20506;-64
2023/03/23 00:44:44;;;;;;;44.38;29.35;;;;;;;;;;5142093;27;20074;-66
2023/03/23 00:48:25;;;;;;;41.22;29.95;;;;;;;;;;5140630;27;20590;-62
2023/03/23 00:52:06;;;;;;;49.13;28.73;;;;;;;;;;5139821;27;20123;-60
2023/03/23 00:55:46;;;;;;;42.92;28.73;;;;;;;;;;5140528;27;20574;-62
2023/03/23 00:59:26;;;;;;;45.22;28.50;;;;;;;;;;5140983;27;20042;-61
2023/03/23 01:03:07;;;;;;;44.67;26.33;;;;;;;;;;5135858;27;20054;-62
2023/03/23 01:06:47;;;;;;;38.58;25.77;;;;;;;;;;5140801;27;20046;-62
2023/03/23 01:10:27;;;;;;;38.72;23.90;;;;;;;;;;5146371;27;20075;-61
2023/03/23 01:14:08;;;;;;;32.05;21.23;;;;;;;;;;5145067;27;20074;-63
2023/03/23 01:17:48;;;;;;;27.42;20.75;;;;;;;;;;5143247;27;20035;-61
2023/03/23 01:21:29;;;;;;;37.08;21.00;;;;;;;;;;5142538;27;20477;-61
2023/03/23 01:25:10;;;;;;;37.20;19.77;;;;;;;;;;5147740;27;20082;-61
2023/03/23 01:28:50;;;;;;;35.80;19.60;;;;;;;;;;5148196;27;20039;-62
2023/03/23 01:32:31;;;;;;;33.38;19.80;;;;;;;;;;5145474;27;20078;-62
2023/03/23 01:36:12;;;;;;;33.55;19.17;;;;;;;;;;5145494;27;20035;-62
2023/03/23 01:39:52;;;;;;;34.67;18.30;;;;;;;;;;5140075;27;20043;-61
2023/03/23 01:43:32;;;;;;;26.20;18.13;;;;;;;;;;5142854;27;20056;-61
2023/03/23 01:47:13;;;;;;;30.02;18.27;;;;;;;;;;5142966;27;20240;-61
2023/03/23 01:50:53;;;;;;;26.08;17.00;;;;;;;;;;5140232;27;20034;-59
2023/03/23 01:54:36;;;;;;;24.88;18.15;;;;;;;;;;5143945;27;20062;-64
2023/03/23 01:58:17;;;;;;;28.30;18.58;;;;;;;;;;5143254;27;20083;-62
2023/03/23 02:01:40;;;;;;;29.05;17.55;;;;;;;;;;5140490;27;20081;-61
2023/03/23 02:04:07;;;;;;;35.33;18.65;;;;;;;;;;5119999;27;20051;-60
2023/03/23 02:06:33;;;;;;;25.50;17.52;;;;;;;;;;5142063;27;20050;-62
2023/03/23 02:08:59;;;;;;;32.25;17.52;;;;;;;;;;5137794;27;20054;-62
2023/03/23 02:11:25;;;;;;;29.30;17.40;;;;;;;;;;5142670;27;20451;-62
2023/03/23 02:13:51;;;;;;;28.80;16.80;;;;;;;;;;5143129;27;20061;-60
2023/03/23 02:16:20;;;;;;;27.95;16.20;;;;;;;;;;5118815;27;20343;-62
2023/03/23 02:18:55;;;;;;;29.50;16.67;;;;;;;;;;5142830;27;20103;-62
2023/03/23 02:21:36;;;;;;;23.20;15.88;;;;;;;;;;5118989;27;20053;-62
2023/03/23 02:24:29;;;;;;;25.38;15.95;;;;;;;;;;5144480;27;20430;-60
2023/03/23 02:27:26;;;;;;;23.27;16.17;;;;;;;;;;5138194;27;20065;-61
2023/03/23 02:30:04;;;;;;;23.30;15.43;;;;;;;;;;5135371;27;20039;-62
2023/03/23 02:32:30;;;;;;;24.95;15.55;;;;;;;;;;5146498;27;20050;-61
2023/03/23 02:35:02;;;;;;;24.70;15.65;;;;;;;;;;5143041;27;20394;-62
2023/03/23 02:37:54;;;;;;;24.88;15.50;;;;;;;;;;5147205;27;20494;-62
2023/03/23 02:40:28;;;;;;;21.65;14.55;;;;;;;;;;5144211;27;20059;-61
2023/03/23 02:42:56;;;;;;;27.58;16.25;;;;;;;;;;5143065;27;20126;-62
2023/03/23 02:45:25;;;;;;;24.15;15.15;;;;;;;;;;5145206;27;20058;-60
2023/03/23 02:47:53;;;;;;;26.45;15.48;;;;;;;;;;5129132;27;20141;-61
2023/03/23 02:50:22;;;;;;;22.90;15.15;;;;;;;;;;5126913;27;20406;-60
2023/03/23 02:52:50;;;;;;;25.30;15.10;;;;;;;;;;5143047;27;20039;-61
2023/03/23 02:55:18;;;;;;;24.33;16.05;;;;;;;;;;5143688;27;20054;-64
2023/03/23 02:57:45;;;;;;;23.73;15.05;;;;;;;;;;5142744;27;20054;-61
2023/03/23 03:00:15;;;;;;;27.90;15.43;;;;;;;;;;5143014;27;20074;-64
2023/03/23 03:02:47;;;;;;;24.80;16.42;;;;;;;;;;5143867;27;20259;-62
2023/03/23 03:05:33;;;;;;;33.28;15.77;;;;;;;;;;5146564;27;20046;-61
2023/03/23 03:08:06;;;;;;;25.05;15.48;;;;;;;;;;5142609;27;20732;-60
2023/03/23 03:10:52;;;;;;;34.73;16.60;;;;;;;;;;5140346;27;20057;-62
2023/03/23 03:13:41;;;;;;;31.50;15.75;;;;;;;;;;5122481;27;20305;-61
2023/03/23 03:16:38;;;;;;;28.95;15.13;;;;;;;;;;5144613;27;20047;-62
2023/03/23 03:19:18;;;;;;;22.48;14.57;;;;;;;;;;5141168;27;20100;-60
2023/03/23 03:21:47;;;;;;;26.60;15.48;;;;;;;;;;5137233;27;20049;-61
2023/03/23 03:24:17;;;;;;;22.63;15.35;;;;;;;;;;5142504;27;20107;-62
2023/03/23 03:26:47;;;;;;;23.27;15.40;;;;;;;;;;5128320;27;20042;-61
2023/03/23 03:29:22;;;;;;;25.40;15.77;;;;;;;;;;5141047;27;20482;-61
2023/03/23 03:31:55;;;;;;;26.45;15.93;;;;;;;;;;5125523;27;20491;-62
2023/03/23 03:34:21;;;;;;;25.90;15.52;;;;;;;;;;5142589;27;20537;-63
2023/03/23 03:36:50;;;;;;;22.75;15.38;;;;;;;;;;5128250;27;20057;-61
2023/03/23 03:39:17;;;;;;;24.83;15.43;;;;;;;;;;5141132;27;20035;-62
2023/03/23 03:41:44;;;;;;;21.15;15.38;;;;;;;;;;5141868;27;20402;-64
2023/03/23 03:44:10;;;;;;;32.28;15.88;;;;;;;;;;5138795;27;20381;-62
2023/03/23 03:46:37;;;;;;;24.38;15.73;;;;;;;;;;5142960;27;20434;-62
2023/03/23 03:49:06;;;;;;;24.52;16.13;;;;;;;;;;5145033;27;20043;-66
2023/03/23 03:51:34;;;;;;;24.45;14.48;;;;;;;;;;5143906;27;20042;-60
2023/03/23 03:54:01;;;;;;;24.38;14.95;;;;;;;;;;5139279;27;20470;-61
2023/03/23 03:56:27;;;;;;;20.00;14.85;;;;;;;;;;5138087;27;20054;-64
2023/03/23 03:58:53;;;;;;;23.50;14.88;;;;;;;;;;5143420;27;20505;-61
2023/03/23 04:01:22;;;;;;;24.42;15.10;;;;;;;;;;5125286;27;20061;-61
2023/03/23 04:03:50;;;;;;;25.67;15.15;;;;;;;;;;5141088;27;20145;-65
2023/03/23 04:06:17;;;;;;;23.60;15.65;;;;;;;;;;5138361;27;20047;-62
2023/03/23 04:08:44;;;;;;;25.88;15.25;;;;;;;;;;5144188;27;20046;-61
2023/03/23 04:11:12;;;;;;;20.55;14.32;;;;;;;;;;5135426;27;20877;-63
2023/03/23 04:13:38;;;;;;;22.05;14.02;;;;;;;;;;5143340;27;20105;-61
2023/03/23 04:16:04;;;;;;;25.88;15.52;;;;;;;;;;5135317;27;20453;-61
2023/03/23 04:18:32;;;;;;;27.40;14.98;;;;;;;;;;5139107;27;20046;-61
2023/03/23 04:20:59;;;;;;;24.88;14.93;;;;;;;;;;5138716;27;20463;-60
2023/03/23 04:23:27;;;;;;;21.20;14.10;;;;;;;;;;5123948;27;20041;-59
2023/03/23 04:25:56;;;;;;;26.95;15.43;;;;;;;;;;5140882;27;20225;-61
2023/03/23 04:28:24;;;;;;;27.73;14.45;;;;;;;;;;5140798;27;20142;-63
2023/03/23 04:30:55;;;;;;;22.83;14.27;;;;;;;;;;5143002;27;20592;-60
2023/03/23 04:33:26;;;;;;;22.20;14.73;;;;;;;;;;5141795;27;20066;-60
2023/03/23 04:36:00;;;;;;;25.10;14.82;;;;;;;;;;5142151;27;20058;-61
2023/03/23 04:38:27;;;;;;;23.65;14.98;;;;;;;;;;5146614;27;20259;-60
2023/03/23 04:40:54;;;;;;;24.20;14.52;;;;;;;;;;5131781;27;20050;-60
2023/03/23 04:43:24;;;;;;;26.08;14.43;;;;;;;;;;5145069;27;20054;-67
2023/03/23 04:45:55;;;;;;;22.98;14.93;;;;;;;;;;5144051;27;20054;-61
2023/03/23 04:48:26;;;;;;;19.60;14.48;;;;;;;;;;5148165;27;20539;-64
2023/03/23 04:50:53;;;;;;;20.90;14.05;;;;;;;;;;5145329;27;20494;-61
2023/03/23 04:53:21;;;;;;;26.02;14.50;;;;;;;;;;5125207;27;20139;-66
2023/03/23 04:55:49;;;;;;;21.83;14.32;;;;;;;;;;5148530;27;20074;-61
2023/03/23 04:58:16;;;;;;;25.73;14.55;;;;;;;;;;5124638;27;20064;-62
2023/03/23 05:00:43;;;;;;;23.33;14.73;;;;;;;;;;5146330;27;21427;-61
2023/03/23 05:03:16;;;;;;;23.52;14.60;;;;;;;;;;5141881;27;20501;-62
2023/03/23 05:05:51;;;;;;;27.63;15.07;;;;;;;;;;5144604;27;20059;-66
2023/03/23 05:08:21;;;;;;;27.38;15.07;;;;;;;;;;5148860;27;20228;-61
2023/03/23 05:10:55;;;;;;;28.30;15.13;;;;;;;;;;5149307;27;20058;-63
2023/03/23 05:13:22;;;;;;;22.40;14.27;;;;;;;;;;5147279;27;20051;-61
2023/03/23 05:15:49;;;;;;;26.77;15.38;;;;;;;;;;5149405;27;20084;-62
2023/03/23 05:18:16;;;;;;;24.55;15.32;;;;;;;;;;5146259;27;20462;-66
2023/03/23 05:20:42;;;;;;;24.63;14.63;;;;;;;;;;5127835;27;20208;-61
2023/03/23 05:23:09;;;;;;;27.27;14.10;;;;;;;;;;5144722;27;20130;-61
2023/03/23 05:25:39;;;;;;;24.50;14.73;;;;;;;;;;5144926;27;20470;-61
2023/03/23 05:28:11;;;;;;;20.48;14.63;;;;;;;;;;5143776;27;20046;-61
2023/03/23 05:30:38;;;;;;;25.45;14.90;;;;;;;;;;5143345;27;20405;-61
2023/03/23 05:33:05;;;;;;;23.17;15.30;;;;;;;;;;5131435;27;20143;-62
2023/03/23 05:35:32;;;;;;;21.10;15.23;;;;;;;;;;5126825;27;20051;-61
2023/03/23 05:37:58;;;;;;;23.38;14.93;;;;;;;;;;5143472;27;20045;-61
2023/03/23 05:40:25;;;;;;;27.10;15.23;;;;;;;;;;5145979;27;20043;-60
2023/03/23 05:43:31;;;;;;;25.60;16.13;;;;;;;;;;5139944;27;20043;-61
2023/03/23 05:47:12;;;;;;;28.67;16.25;;;;;;;;;;5135582;27;20097;-63
2023/03/23 05:50:52;;;;;;;22.38;15.48;;;;;;;;;;5136353;27;20035;-63
2023/03/23 05:54:33;;;;;;;27.08;16.17;;;;;;;;;;5145643;27;20053;-62
2023/03/23 05:58:12;;;;;;;27.55;17.63;;;;;;;;;;5143036;27;20074;-62
2023/03/23 06:01:57;;;;;;;31.98;17.15;;;;;;;;;;5139863;27;20046;-62
2023/03/23 06:05:36;;;;;;;26.38;15.82;;;;;;;;;;5142566;27;20322;-59
2023/03/23 06:09:17;;;;;;;25.20;15.23;;;;;;;;;;5141682;27;20459;-63
2023/03/23 06:12:58;;;;;;;28.05;16.85;;;;;;;;;;5137618;27;20509;-62
2023/03/23 06:16:40;;;;;;;25.73;15.80;;;;;;;;;;5141368;27;20046;-61
2023/03/23 06:20:20;;;;;;;35.75;16.08;;;;;;;;;;5139685;27;20046;-61
2023/03/23 06:24:00;;;;;;;26.67;16.13;;;;;;;;;;5140081;27;20053;-63
2023/03/23 06:27:40;;;;;;;29.27;16.85;;;;;;;;;;5140887;27;20085;-62
2023/03/23 06:31:21;;;;;;;26.73;17.50;;;;;;;;;;5138932;27;20072;-66
2023/03/23 06:35:01;;;;;;;28.50;17.02;;;;;;;;;;5143816;27;20099;-65
2023/03/23 06:38:41;;;;;;;28.50;17.20;;;;;;;;;;5141388;27;20382;-62
2023/03/23 06:42:22;;;;;;;24.58;17.00;;;;;;;;;;5141918;27;20061;-63
2023/03/23 06:46:02;;;;;;;40.25;18.55;;;;;;;;;;5141557;27;20047;-62
2023/03/23 06:49:43;;;;;;;27.60;17.25;;;;;;;;;;5144802;27;20117;-64
2023/03/23 06:53:27;;;;;;;29.67;17.73;;;;;;;;;;5144403;27;20061;-67
2023/03/23 06:57:07;;;;;;;33.70;17.05;;;;;;;;;;5139255;27;20050;-62
2023/03/23 07:00:49;;;;;;;30.27;17.88;;;;;;;;;;5143032;27;20054;-65
2023/03/23 07:04:30;;;;;;;27.85;16.67;;;;;;;;;;5143665;27;20043;-65
2023/03/23 07:08:10;;;;;;;32.45;17.73;;;;;;;;;;5134637;27;20143;-64
2023/03/23 07:11:51;;;;;;;34.00;18.17;;;;;;;;;;5140845;27;21208;-65
2023/03/23 07:15:30;;;;;;;35.10;18.02;;;;;;;;;;5143294;27;20139;-63
2023/03/23 07:19:11;;;;;;;28.20;17.90;;;;;;;;;;5140526;27;20451;-63
2023/03/23 07:22:51;;;;;;;34.47;17.08;;;;;;;;;;5141543;27;20500;-62
2023/03/23 07:26:32;;;;;;;27.98;17.13;;;;;;;;;;5141237;27;20125;-62
2023/03/23 07:30:12;;;;;;;28.90;16.83;;;;;;;;;;5146685;27;20200;-63
2023/03/23 07:33:52;;;;;;;25.13;16.85;;;;;;;;;;5136620;27;20039;-62
2023/03/23 07:37:33;;;;;;;27.77;16.73;;;;;;;;;;5144186;27;20039;-62
2023/03/23 07:41:13;;;;;;;24.17;14.68;;;;;;;;;;5139377;27;20043;-63
2023/03/23 07:44:53;;;;;;;28.38;15.00;;;;;;;;;;5135417;27;20419;-65
2023/03/23 07:48:34;;;;;;;28.25;14.23;;;;;;;;;;5140623;27;20521;-63
2023/03/23 07:52:14;;;;;;;26.77;15.18;;;;;;;;;;5144088;27;20054;-64
2023/03/23 07:55:54;;;;;;;23.05;14.60;;;;;;;;;;5137125;27;20582;-62
2023/03/23 07:59:35;;;;;;;31.95;14.15;;;;;;;;;;5141607;27;20095;-62
2023/03/23 08:03:15;;;;;;;28.40;14.68;;;;;;;;;;5139609;27;20034;-63
2023/03/23 08:06:56;;;;;;;24.98;14.70;;;;;;;;;;5132461;27;20189;-63
2023/03/23 08:10:36;;;;;;;31.42;14.95;;;;;;;;;;5136901;27;20091;-62
2023/03/23 08:14:16;;;;;;;23.25;12.90;;;;;;;;;;5141021;27;20057;-64
2023/03/23 08:17:57;;;;;;;35.45;14.77;;;;;;;;;;5145898;27;20035;-64
2023/03/23 08:21:38;;;;;;;23.92;14.05;;;;;;;;;;5148492;27;20392;-63
2023/03/23 08:25:19;;;;;;;29.88;14.15;;;;;;;;;;5142396;27;20053;-64
2023/03/23 08:29:00;;;;;;;26.92;14.05;;;;;;;;;;5145980;27;20050;-63
2023/03/23 08:32:40;;;;;;;25.42;13.75;;;;;;;;;;5140013;27;20039;-63
2023/03/23 08:36:20;;;;;;;28.52;13.68;;;;;;;;;;5145838;27;20038;-63
2023/03/23 08:40:07;;;;;;;25.15;15.23;;;;;;;;;;5139972;27;20350;-62
2023/03/23 08:43:43;;;;;;;27.38;14.80;;;;;;;;;;5142419;27;20049;-66
2023/03/23 08:47:24;;;;;;;22.80;14.23;;;;;;;;;;5146600;27;20779;-64
2023/03/23 08:51:03;;;;;;;27.17;14.68;;;;;;;;;;5148986;27;20050;-63
2023/03/23 08:54:46;;;;;;;24.02;14.77;;;;;;;;;;5138865;27;20200;-64
2023/03/23 08:58:24;;;;;;;24.30;14.88;;;;;;;;;;5138138;27;20050;-63
2023/03/23 09:02:06;;;;;;;35.08;17.08;;;;;;;;;;5137461;27;20401;-63
2023/03/23 09:05:46;;;;;;;29.13;15.70;;;;;;;;;;5139218;27;20055;-64
2023/03/23 09:09:27;;;;;;;27.10;15.45;;;;;;;;;;5144576;27;20125;-62
2023/03/23 09:13:08;;;;;;;25.88;16.02;;;;;;;;;;5132704;27;20057;-64
2023/03/23 09:16:49;;;;;;;26.73;13.50;;;;;;;;;;5146422;27;20089;-63
2023/03/23 09:20:29;;;;;;;32.60;14.75;;;;;;;;;;5143277;27;20143;-64
2023/03/23 09:24:10;;;;;;;24.80;14.50;;;;;;;;;;5141113;27;20059;-61
2023/03/23 09:27:53;;;;;;;25.17;13.68;;;;;;;;;;5142581;27;20050;-63
2023/03/23 09:31:31;;;;;;;29.20;15.95;;;;;;;;;;5142349;27;20055;-61
2023/03/23 09:35:12;;;;;;;27.30;14.18;;;;;;;;;;5159473;27;20115;-62
2023/03/23 09:38:52;;;;;;;31.73;15.07;;;;;;;;;;5139206;27;20050;-62
2023/03/23 09:42:15;;;;;;;34.53;16.45;;;;;;;;;;5131109;27;20042;-66
2023/03/23 09:45:38;;;;;;;32.33;15.45;;;;;;;;;;5143108;27;20270;-63
2023/03/23 09:49:19;;;;;;;27.45;16.15;;;;;;;;;;5145374;27;20043;-61
2023/03/23 09:52:59;;;;;;;26.60;14.20;;;;;;;;;;5140661;27;20050;-64
2023/03/23 09:56:40;;;;;;;25.42;13.40;;;;;;;;;;5138999;27;20054;-63
2023/03/23 10:00:35;;;;;;;23.77;12.38;;;;;;;;;;5140507;27;20522;-62
2023/03/23 10:04:18;;;;;;;24.60;12.50;;;;;;;;;;5137667;27;20042;-61
2023/03/23 10:07:59;;;;;;;18.38;11.40;;;;;;;;;;5136810;27;20190;-61
2023/03/23 10:11:24;;;;;;;33.95;14.25;;;;;;;;;;5142089;27;20674;-63
2023/03/23 10:15:28;;;;;;;30.98;13.40;;;;;;;;;;5136236;27;20099;-61
2023/03/23 10:19:04;;;;;;;26.40;13.68;;;;;;;;;;5037523;28;20102;-65
2023/03/23 10:22:50;;;;;;;23.42;12.48;;;;;;;;;;5038464;28;20619;-63
2023/03/23 10:26:26;;;;;;;17.58;11.50;;;;;;;;;;5038979;28;20051;-62
2023/03/23 10:30:24;;;;;;;20.67;11.57;;;;;;;;;;5041649;28;20048;-64
2023/03/23 10:34:19;;;;;;;13.98;10.50;;;;;;;;;;5026406;28;20056;-67
2023/03/23 10:38:00;;;;;;;17.50;11.07;;;;;;;;;;5040296;28;20045;-62
2023/03/23 10:41:44;;;;;;;16.35;10.85;;;;;;;;;;5038654;28;20044;-65
2023/03/23 10:45:40;;;;;;;15.05;10.27;;;;;;;;;;5034506;28;20598;-66
2023/03/23 10:49:19;;;;;;;15.82;9.77;;;;;;;;;;5040101;28;20040;-63
2023/03/23 10:52:34;;;;;;;14.27;10.38;;;;;;;;;;5107223;27;20586;-62
2023/03/23 10:56:17;;;;;;;14.45;10.18;;;;;;;;;;5140548;27;20494;-64
2023/03/23 11:00:06;;;;;;;14.30;9.43;;;;;;;;;;5144885;27;20046;-64
2023/03/23 11:03:26;;;;;;;17.13;10.15;;;;;;;;;;5142569;27;20038;-65
2023/03/23 11:07:12;;;;;;;15.68;9.18;;;;;;;;;;5147784;27;20099;-64
2023/03/23 11:10:55;;;;;;;13.57;8.75;;;;;;;;;;5134466;27;20039;-64
2023/03/23 11:14:18;;;;;;;14.27;8.13;;;;;;;;;;5139637;27;20035;-65
2023/03/23 11:18:00;;;;;;;25.77;9.57;;;;;;;;;;5141414;27;20130;-65
2023/03/23 11:21:41;;;;;;;15.85;10.10;;;;;;;;;;5140559;27;20046;-64
2023/03/23 11:25:21;;;;;;;13.18;9.60;;;;;;;;;;5140066;27;20412;-64
2023/03/23 11:29:36;;;;;;;20.48;9.93;;;;;;;;;;5102488;27;20404;-64
2023/03/23 11:32:57;;;;;;;;;;;;;;;;;;5075083;28;20281;-63
2023/03/23 11:36:37;;;;;;;19.83;12.15;;;;;;;;;;5068546;28;19921;-65
2023/03/23 11:40:09;;;;;;;22.08;14.10;;;;;;;;;;5076235;28;20311;-63
2023/03/23 11:43:51;;;;;;;29.48;13.70;;;;;;;;;;5083514;28;20593;-64
2023/03/23 11:47:01;;;;;;;22.85;12.13;;;;;;;;;;5082036;28;20032;-64
2023/03/23 11:50:40;;;;;;;30.55;13.63;;;;;;;;;;5083093;28;20079;-65
2023/03/23 11:54:26;;;;;;;17.98;12.63;;;;;;;;;;5079980;28;20060;-65
2023/03/23 11:58:06;;;;;;;20.80;13.07;;;;;;;;;;5078250;28;20040;-62
2023/03/23 12:01:32;;;;;;;25.27;13.23;;;;;;;;;;5080767;28;20539;-63
2023/03/23 12:04:28;;;;;;;19.92;13.23;;;;;;;;;;5078767;28;20500;-64
2023/03/23 12:07:28;;;;;;;18.77;14.00;;;;;;;;;;5076818;28;20044;-62
2023/03/23 12:10:10;;;;;;;20.20;13.85;;;;;;;;;;5078936;28;20076;-62
2023/03/23 12:12:58;;;;;;;21.50;14.02;;;;;;;;;;5082589;28;20048;-63
2023/03/23 12:15:36;;;;;;;21.80;13.48;;;;;;;;;;5070769;28;20084;-63
2023/03/23 12:18:20;;;;;;;20.15;13.35;;;;;;;;;;5086686;28;20126;-64
2023/03/23 12:21:02;;;;;;;18.10;12.60;;;;;;;;;;5075329;28;20836;-64
2023/03/23 12:23:51;;;;;;;18.38;12.25;;;;;;;;;;5087152;28;20105;-65
2023/03/23 12:26:29;;;;;;;16.60;12.35;;;;;;;;;;5062263;28;20048;-65
2023/03/23 12:29:01;;;;;;;21.13;13.55;;;;;;;;;;5076400;28;21007;-64
2023/03/23 12:32:15;;;;;;;20.80;13.80;;;;;;;;;;5080775;28;20044;-63
2023/03/23 12:34:54;;;;;;;18.27;14.90;;;;;;;;;;5022878;28;20077;-63
2023/03/23 12:37:34;;;;;;;22.63;16.52;;;;;;;;;;5016766;28;20042;-68
2023/03/23 12:40:25;;;;;;;20.48;15.05;;;;;;;;;;5003548;28;20494;-66
2023/03/23 12:43:18;;;;;;;23.23;14.80;;;;;;;;;;5004963;28;20201;-66
2023/03/23 12:46:09;;;;;;;19.58;12.80;;;;;;;;;;5001277;28;20449;-64
2023/03/23 12:49:00;;;;;;;20.52;13.02;;;;;;;;;;5012807;28;20377;-65
2023/03/23 12:52:02;;;;;;;19.13;12.68;;;;;;;;;;5001966;28;20050;-65
2023/03/23 12:54:43;;;;;;;22.38;12.05;;;;;;;;;;4991911;28;20053;-64
2023/03/23 12:57:12;;;;;;;17.88;11.75;;;;;;;;;;5004319;28;20597;-64
2023/03/23 12:59:44;;;;;;;18.63;12.95;;;;;;;;;;5006203;28;20133;-67
2023/03/23 13:02:25;;;;;;;20.05;14.23;;;;;;;;;;5013203;28;20048;-64
2023/03/23 13:05:06;;;;;;;20.23;13.55;;;;;;;;;;5027102;28;20531;-63
2023/03/23 13:07:53;;;;;;;25.17;13.80;;;;;;;;;;5068410;28;20515;-65
2023/03/23 13:10:24;;;;;;;18.70;13.75;;;;;;;;;;5065549;28;20441;-64
2023/03/23 13:12:51;;;;;;;17.98;13.73;;;;;;;;;;5069589;28;20458;-64
2023/03/23 13:15:51;;;;;;;20.17;12.77;;;;;;;;;;5064286;28;20059;-63
2023/03/23 13:18:37;;;;;;;16.13;11.07;;;;;;;;;;5063784;28;20186;-65
2023/03/23 13:21:17;;;;;;;16.08;10.60;;;;;;;;;;5064506;28;20040;-65
2023/03/23 13:23:50;;;;;;;16.38;10.93;;;;;;;;;;5060971;28;20053;-64
2023/03/23 13:26:22;;;;;;;13.50;10.43;;;;;;;;;;5069482;28;20044;-64
2023/03/23 13:28:55;;;;;;;17.52;11.85;;;;;;;;;;5067531;28;20048;-65
2023/03/23 13:31:30;;;;;;;17.42;9.80;;;;;;;;;;5064607;28;20037;-66
2023/03/23 13:34:11;;;;;;;18.02;11.23;;;;;;;;;;5045897;28;20162;-65
2023/03/23 13:36:43;;;;;;;16.73;10.25;;;;;;;;;;5064161;28;20393;-63
2023/03/23 13:39:20;;;;;;;18.95;10.60;;;;;;;;;;5061556;28;21001;-65
2023/03/23 13:42:00;;;;;;;17.23;9.93;;;;;;;;;;5060235;28;20249;-64
2023/03/23 13:44:48;;;;;;;18.23;11.00;;;;;;;;;;5065116;28;20505;-63
2023/03/23 13:47:32;;;;;;;14.32;10.13;;;;;;;;;;5068788;28;20684;-64
2023/03/23 13:50:24;;;;;;;14.02;9.45;;;;;;;;;;5066188;28;20052;-65
2023/03/23 13:52:55;;;;;;;13.10;9.75;;;;;;;;;;5074976;28;20056;-64
2023/03/23 13:55:35;;;;;;;15.60;10.10;;;;;;;;;;5074162;28;20041;-64
2023/03/23 13:58:01;;;;;;;13.75;9.77;;;;;;;;;;5081459;28;20618;-64
2023/03/23 14:00:30;;;;;;;17.23;10.32;;;;;;;;;;5067941;28;20047;-66
2023/03/23 14:03:24;;;;;;;15.38;9.70;;;;;;;;;;5078346;28;20048;-64
2023/03/23 14:06:03;;;;;;;12.30;8.57;;;;;;;;;;5067563;28;20036;-66
2023/03/23 14:08:32;;;;;;;13.25;8.55;;;;;;;;;;5064126;28;20289;-66
2023/03/23 14:11:02;;;;;;;16.15;8.52;;;;;;;;;;5061829;28;20036;-67
2023/03/23 14:13:36;;;;;;;11.63;8.93;;;;;;;;;;5069054;28;20526;-64
2023/03/23 14:16:21;;;;;;;10.38;8.35;;;;;;;;;;5049748;28;20807;-65
2023/03/23 14:18:57;;;;;;;14.52;8.65;;;;;;;;;;5071328;28;20063;-63
2023/03/23 14:21:30;;;;;;;13.75;8.35;;;;;;;;;;5042668;28;20123;-64
2023/03/23 14:24:00;;;;;;;11.68;8.27;;;;;;;;;;5063096;28;20044;-63
2023/03/23 14:26:27;;;;;;;11.80;6.60;;;;;;;;;;5061447;28;20040;-63
2023/03/23 14:28:54;;;;;;;18.40;7.93;;;;;;;;;;5062241;28;20107;-63
2023/03/23 14:31:26;;;;;;;11.73;7.57;;;;;;;;;;5060109;28;20080;-66
2023/03/23 14:33:55;;;;;;;14.80;7.95;;;;;;;;;;5063833;28;20048;-65
2023/03/23 14:36:30;;;;;;;13.43;7.32;;;;;;;;;;5054812;28;20045;-64
2023/03/23 14:39:11;;;;;;;9.98;7.05;;;;;;;;;;5064079;28;20214;-67
2023/03/23 14:41:38;;;;;;;14.88;6.80;;;;;;;;;;5062243;28;20048;-66
2023/03/23 14:44:09;;;;;;;14.18;7.57;;;;;;;;;;5044829;28;20048;-64
2023/03/23 14:46:36;;;;;;;11.32;6.30;;;;;;;;;;5075220;28;20252;-63
2023/03/23 14:49:05;;;;;;;12.55;6.82;;;;;;;;;;5060417;28;20056;-66
2023/03/23 14:51:31;;;;;;;13.13;6.38;;;;;;;;;;5065954;28;20407;-64
2023/03/23 14:54:00;;;;;;;9.32;6.35;;;;;;;;;;5047498;28;20040;-65
2023/03/23 14:56:34;;;;;;;8.77;5.60;;;;;;;;;;5070982;28;20075;-64
2023/03/23 14:59:08;;;;;;;10.57;6.35;;;;;;;;;;5063063;28;20049;-66
2023/03/23 15:01:36;;;;;;;9.60;6.32;;;;;;;;;;5050923;28;20099;-63
2023/03/23 15:04:20;;;;;;;12.50;6.82;;;;;;;;;;5057784;28;20071;-66
2023/03/23 15:07:00;;;;;;;16.90;7.32;;;;;;;;;;5047850;28;20862;-65
2023/03/23 15:09:28;;;;;;;11.68;6.53;;;;;;;;;;5064480;28;20057;-66
2023/03/23 15:11:58;;;;;;;10.57;5.88;;;;;;;;;;5063351;28;20516;-63
2023/03/23 15:14:29;;;;;;;13.85;7.10;;;;;;;;;;5063252;28;20060;-65
2023/03/23 15:16:58;;;;;;;11.75;7.20;;;;;;;;;;5066391;28;20431;-66
2023/03/23 15:19:44;;;;;;;11.13;5.78;;;;;;;;;;5045061;28;20079;-64
2023/03/23 15:22:29;;;;;;;8.52;5.28;;;;;;;;;;5060917;28;20140;-63
2023/03/23 15:25:18;;;;;;;9.63;6.13;;;;;;;;;;5066428;28;20048;-64
2023/03/23 15:27:51;;;;;;;7.43;6.13;;;;;;;;;;5065149;28;20052;-64
2023/03/23 15:30:24;;;;;;;10.63;5.72;;;;;;;;;;5063046;28;20048;-66
2023/03/23 15:32:56;;;;;;;9.30;6.10;;;;;;;;;;5045156;28;20375;-65
2023/03/23 15:35:28;;;;;;;13.38;6.43;;;;;;;;;;5063220;28;20512;-67
2023/03/23 15:38:13;;;;;;;10.00;7.60;;;;;;;;;;5067580;28;20303;-64
2023/03/23 15:40:41;;;;;;;10.43;6.97;;;;;;;;;;5062776;28;20044;-63
2023/03/23 15:43:23;;;;;;;11.48;6.70;;;;;;;;;;5063539;28;20044;-64
2023/03/23 15:46:05;;;;;;;10.35;7.55;;;;;;;;;;5061663;28;20101;-64
2023/03/23 15:48:45;;;;;;;11.13;7.35;;;;;;;;;;5064363;28;20048;-68
2023/03/23 15:51:15;;;;;;;12.18;7.50;;;;;;;;;;5057089;28;20153;-69
2023/03/23 15:53:42;;;;;;;9.70;6.88;;;;;;;;;;5059714;28;20049;-70
2023/03/23 15:56:10;;;;;;;13.88;6.57;;;;;;;;;;5057130;28;20051;-65
2023/03/23 15:58:38;;;;;;;12.55;7.32;;;;;;;;;;5068229;28;20051;-65
2023/03/23 16:01:10;;;;;;;8.88;6.88;;;;;;;;;;5044412;28;20454;-65
2023/03/23 16:03:49;;;;;;;13.23;6.80;;;;;;;;;;5059931;28;20041;-65
2023/03/23 16:06:23;;;;;;;12.48;6.93;;;;;;;;;;5055897;28;20677;-66
2023/03/23 16:08:49;;;;;;;14.00;6.20;;;;;;;;;;5064764;28;20049;-65
2023/03/23 16:11:18;;;;;;;9.40;6.13;;;;;;;;;;5043793;28;20033;-66
2023/03/23 16:13:44;;;;;;;8.43;5.97;;;;;;;;;;5055413;28;20056;-64
2023/03/23 16:16:25;;;;;;;7.50;4.90;;;;;;;;;;5059021;28;20108;-67
2023/03/23 16:18:52;;;;;;;7.85;4.75;;;;;;;;;;5062086;28;20044;-71
2023/03/23 16:21:18;;;;;;;7.57;4.15;;;;;;;;;;5068719;28;20256;-70
2023/03/23 16:23:45;;;;;;;10.98;4.53;;;;;;;;;;5057739;28;20134;-72
2023/03/23 16:26:13;;;;;;;9.80;4.00;;;;;;;;;;5058413;28;20048;-66
2023/03/23 16:28:40;;;;;;;8.68;3.97;;;;;;;;;;5057508;28;20045;-66
2023/03/23 16:31:08;;;;;;;9.35;3.78;;;;;;;;;;5059683;28;20489;-65
2023/03/23 16:33:34;;;;;;;9.98;3.90;;;;;;;;;;5061827;28;20093;-68
2023/03/23 16:36:02;;;;;;;7.60;3.17;;;;;;;;;;5067581;28;20047;-73
2023/03/23 16:38:28;;;;;;;8.50;3.92;;;;;;;;;;5064702;28;20076;-68
2023/03/23 16:40:54;;;;;;;6.55;3.10;;;;;;;;;;5045076;28;20055;-72
2023/03/23 16:43:20;;;;;;;10.60;4.00;;;;;;;;;;5052979;28;20393;-66
2023/03/23 16:45:47;;;;;;;12.20;3.65;;;;;;;;;;5065293;28;20060;-67
2023/03/23 16:48:15;;;;;;;12.20;4.82;;;;;;;;;;5064513;28;20044;-64
2023/03/23 16:50:44;;;;;;;8.80;3.67;;;;;;;;;;5059490;28;20056;-68
2023/03/23 16:53:10;;;;;;;7.55;3.67;;;;;;;;;;5050098;28;20214;-65
2023/03/23 16:55:38;;;;;;;9.75;3.95;;;;;;;;;;5064850;28;20500;-67
2023/03/23 16:58:06;;;;;;;8.07;3.58;;;;;;;;;;5065876;28;20060;-65
2023/03/23 17:00:33;;;;;;;8.80;3.50;;;;;;;;;;5048555;28;20052;-67
2023/03/23 17:03:00;;;;;;;7.25;3.72;;;;;;;;;;5064170;28;20125;-66
2023/03/23 17:05:29;;;;;;;8.55;4.05;;;;;;;;;;5063719;28;20048;-65
2023/03/23 17:07:55;;;;;;;12.23;4.25;;;;;;;;;;5059237;28;20488;-68
2023/03/23 17:10:23;;;;;;;7.13;4.60;;;;;;;;;;5064083;28;20083;-65
2023/03/23 17:12:49;;;;;;;7.40;4.70;;;;;;;;;;5051331;28;20047;-64
2023/03/23 17:15:18;;;;;;;8.80;5.25;;;;;;;;;;5069754;28;20052;-65
2023/03/23 17:17:44;;;;;;;9.57;5.30;;;;;;;;;;5055456;28;20559;-68
2023/03/23 17:20:51;;;;;;;8.68;5.25;;;;;;;;;;5066227;28;20048;-66
2023/03/23 17:24:31;;;;;;;9.38;4.82;;;;;;;;;;5065531;28;20044;-65
2023/03/23 17:28:12;;;;;;;9.35;5.00;;;;;;;;;;5070729;28;20433;-66
2023/03/23 17:31:52;;;;;;;10.02;5.32;;;;;;;;;;5058298;28;20052;-67